createdAt,value
2022-09-28T00:01:23.202Z,19.67
2022-09-28T00:03:52.321Z,21.00
2022-09-28T00:06:22.678Z,27.27
2022-09-28T00:08:50.740Z,23.05
2022-09-28T00:11:19.124Z,29.23
2022-09-28T00:13:53.936Z,17.00
2022-09-28T00:16:26.107Z,17.08
2022-09-28T00:18:54.953Z,19.50
2022-09-28T00:21:24.475Z,17.10
2022-09-28T00:24:15.077Z,19.10
2022-09-28T00:26:56.846Z,18.35
2022-09-28T00:29:32.944Z,15.65
2022-09-28T00:32:06.601Z,15.30
2022-09-28T00:34:40.096Z,14.23
2022-09-28T00:37:10.785Z,13.60
2022-09-28T00:39:38.944Z,12.82
2022-09-28T00:42:16.538Z,12.55
2022-09-28T00:44:47.949Z,11.30
2022-09-28T00:47:31.794Z,13.10
2022-09-28T00:50:11.052Z,12.20
2022-09-28T00:52:49.683Z,11.48
2022-09-28T00:55:22.905Z,13.10
2022-09-28T00:57:52.692Z,12.03
2022-09-28T01:00:22.513Z,11.40
2022-09-28T01:02:50.503Z,11.63
2022-09-28T01:05:18.619Z,11.80
2022-09-28T01:07:47.563Z,12.40
2022-09-28T01:10:15.249Z,11.97
2022-09-28T01:12:45.734Z,12.02
2022-09-28T01:15:16.064Z,11.65
2022-09-28T01:17:53.305Z,13.52
2022-09-28T01:21:01.726Z,13.32
2022-09-28T01:23:56.064Z,12.30
2022-09-28T01:26:34.616Z,15.32
2022-09-28T01:29:26.976Z,12.45
2022-09-28T01:32:21.568Z,13.85
2022-09-28T01:35:32.024Z,15.05
2022-09-28T01:38:08.296Z,13.97
2022-09-28T01:40:36.466Z,18.67
2022-09-28T01:43:07.317Z,16.67
2022-09-28T01:45:52.362Z,18.10
2022-09-28T01:48:29.909Z,16.77
2022-09-28T01:51:00.371Z,15.73
2022-09-28T01:53:36.320Z,15.48
2022-09-28T01:56:15.463Z,16.15
2022-09-28T01:58:47.420Z,16.02
2022-09-28T02:01:24.184Z,16.02
2022-09-28T02:04:08.703Z,16.50
2022-09-28T02:06:39.163Z,16.30
2022-09-28T02:09:17.385Z,16.92
2022-09-28T02:11:52.912Z,14.82
2022-09-28T02:14:21.613Z,16.92
2022-09-28T02:16:52.679Z,14.60
2022-09-28T02:19:28.809Z,15.73
2022-09-28T02:22:10.507Z,18.38
2022-09-28T02:24:40.547Z,16.92
2022-09-28T02:27:16.798Z,15.23
2022-09-28T02:29:48.837Z,13.63
2022-09-28T02:32:24.504Z,15.15
2022-09-28T02:34:52.562Z,14.60
2022-09-28T02:37:22.566Z,15.55
2022-09-28T02:39:54.930Z,16.77
2022-09-28T02:42:29.650Z,13.07
2022-09-28T02:45:26.834Z,13.90
2022-09-28T02:48:14.135Z,14.27
2022-09-28T02:51:27.258Z,13.10
2022-09-28T02:54:23.424Z,14.40
2022-09-28T02:57:03.231Z,13.00
2022-09-28T02:59:46.353Z,16.10
2022-09-28T03:02:34.850Z,14.45
2022-09-28T03:05:10.225Z,13.13
2022-09-28T03:07:53.267Z,14.35
2022-09-28T03:10:31.470Z,15.23
2022-09-28T03:13:00.746Z,12.80
2022-09-28T03:15:38.237Z,13.13
2022-09-28T03:18:08.942Z,12.60
2022-09-28T03:20:38.090Z,14.02
2022-09-28T03:23:23.887Z,12.87
2022-09-28T03:25:55.159Z,13.32
2022-09-28T03:28:24.713Z,12.68
2022-09-28T03:30:54.178Z,14.65
2022-09-28T03:33:23.383Z,13.40
2022-09-28T03:35:53.278Z,16.37
2022-09-28T03:38:22.256Z,14.63
2022-09-28T03:40:57.434Z,13.95
2022-09-28T03:43:26.206Z,12.35
2022-09-28T03:45:59.465Z,14.48
2022-09-28T03:48:32.620Z,12.17
2022-09-28T03:51:02.229Z,16.48
2022-09-28T03:53:30.878Z,13.38
2022-09-28T03:56:08.051Z,15.18
2022-09-28T03:58:37.920Z,11.57
2022-09-28T04:01:09.227Z,12.80
2022-09-28T04:03:40.575Z,12.82
2022-09-28T04:06:08.875Z,11.00
2022-09-28T04:08:37.585Z,13.90
2022-09-28T04:11:06.974Z,11.43
2022-09-28T04:13:35.524Z,11.77
2022-09-28T04:16:05.739Z,10.75
2022-09-28T04:18:35.504Z,10.80
2022-09-28T04:21:16.068Z,10.57
2022-09-28T04:23:49.435Z,10.65
2022-09-28T04:26:22.646Z,10.23
2022-09-28T04:29:15.304Z,12.27
2022-09-28T04:31:53.658Z,11.75
2022-09-28T04:34:29.849Z,9.85
2022-09-28T04:37:05.252Z,9.82
2022-09-28T04:39:36.256Z,11.17
2022-09-28T04:42:08.615Z,10.45
2022-09-28T04:44:36.874Z,11.30
2022-09-28T04:47:10.053Z,12.48
2022-09-28T04:50:17.236Z,11.77
2022-09-28T04:53:09.303Z,11.07
2022-09-28T04:55:41.227Z,11.38
2022-09-28T04:58:10.248Z,12.75
2022-09-28T05:00:39.925Z,11.10
2022-09-28T05:03:24.193Z,12.30
2022-09-28T05:06:14.640Z,11.87
2022-09-28T05:08:47.504Z,13.80
2022-09-28T05:11:20.367Z,14.82
2022-09-28T05:13:51.603Z,11.75
2022-09-28T05:16:27.671Z,11.63
2022-09-28T05:19:18.814Z,12.03
2022-09-28T05:21:56.106Z,14.48
2022-09-28T05:24:26.796Z,13.55
2022-09-28T05:26:56.537Z,13.02
2022-09-28T05:29:32.077Z,14.15
2022-09-28T05:32:20.406Z,12.73
2022-09-28T05:35:02.522Z,13.75
2022-09-28T05:37:42.683Z,12.40
2022-09-28T05:40:12.965Z,12.88
2022-09-28T05:42:44.596Z,12.18
2022-09-28T05:45:16.732Z,12.10
2022-09-28T05:47:51.017Z,13.43
2022-09-28T05:50:22.716Z,13.77
2022-09-28T05:53:03.891Z,12.77
2022-09-28T05:55:41.094Z,16.90
2022-09-28T05:58:16.479Z,16.30
2022-09-28T06:00:47.977Z,12.03
2022-09-28T06:03:17.134Z,12.93
2022-09-28T06:05:49.845Z,10.90
2022-09-28T06:08:23.939Z,13.43
2022-09-28T06:11:02.522Z,12.73
2022-09-28T06:13:37.629Z,10.90
2022-09-28T06:16:17.114Z,10.05
2022-09-28T06:18:46.635Z,10.32
2022-09-28T06:21:37.135Z,11.23
2022-09-28T06:24:05.186Z,11.70
2022-09-28T06:26:33.386Z,10.97
2022-09-28T06:29:04.093Z,9.45
2022-09-28T06:31:32.091Z,9.90
2022-09-28T06:34:02.364Z,11.23
2022-09-28T06:36:31.693Z,12.07
2022-09-28T06:39:00.378Z,11.17
2022-09-28T06:41:29.768Z,10.88
2022-09-28T06:44:02.650Z,11.40
2022-09-28T06:46:48.885Z,18.90
2022-09-28T06:49:24.060Z,9.90
2022-09-28T06:52:25.689Z,11.97
2022-09-28T06:55:21.693Z,10.60
2022-09-28T06:58:15.163Z,10.65
2022-09-28T07:00:51.529Z,10.95
2022-09-28T07:03:24.347Z,10.48
2022-09-28T07:06:12.968Z,10.50
2022-09-28T07:09:26.349Z,9.75
2022-09-28T07:12:37.099Z,9.82
2022-09-28T07:15:22.813Z,11.25
2022-09-28T07:18:02.638Z,11.13
2022-09-28T07:20:47.823Z,11.17
2022-09-28T07:23:28.135Z,10.18
2022-09-28T07:26:28.592Z,9.88
2022-09-28T07:29:16.530Z,8.68
2022-09-28T07:31:59.035Z,10.43
2022-09-28T07:34:32.042Z,9.03
2022-09-28T07:37:13.270Z,8.15
2022-09-28T07:40:03.666Z,9.32
2022-09-28T07:42:44.873Z,7.30
2022-09-28T07:45:26.252Z,8.65
2022-09-28T07:48:00.950Z,7.67
2022-09-28T07:50:54.434Z,6.95
2022-09-28T07:53:37.547Z,7.60
2022-09-28T07:56:23.584Z,7.72
2022-09-28T07:59:12.942Z,7.03
2022-09-28T08:01:46.356Z,7.70
2022-09-28T08:04:17.164Z,7.15
2022-09-28T08:06:50.968Z,8.82
2022-09-28T08:09:22.972Z,7.75
2022-09-28T08:12:12.616Z,5.38
2022-09-28T08:15:01.084Z,7.80
2022-09-28T08:17:49.918Z,5.50
2022-09-28T08:20:48.039Z,7.88
2022-09-28T08:23:19.827Z,5.72
2022-09-28T08:25:56.718Z,5.32
2022-09-28T08:28:26.033Z,5.13
2022-09-28T08:31:01.818Z,9.02
2022-09-28T08:33:33.087Z,4.13
2022-09-28T08:36:19.199Z,4.57
2022-09-28T08:39:03.513Z,6.53
2022-09-28T08:42:12.398Z,4.83
2022-09-28T08:45:02.392Z,6.95
2022-09-28T08:48:56.239Z,5.22
2022-09-28T08:51:50.764Z,4.95
2022-09-28T08:54:54.364Z,4.07
2022-09-28T08:57:42.134Z,3.70
2022-09-28T09:00:29.149Z,6.20
2022-09-28T09:03:18.262Z,4.20
2022-09-28T09:06:40.621Z,3.35
2022-09-28T09:09:47.215Z,3.63
2022-09-28T09:15:49.284Z,2.63
2022-09-28T09:18:39.120Z,2.75
2022-09-28T09:21:51.035Z,3.00
2022-09-28T09:24:47.981Z,4.80
2022-09-28T09:27:28.938Z,4.63
2022-09-28T09:30:02.094Z,1.95
2022-09-28T09:32:54.337Z,4.32
2022-09-28T09:36:03.933Z,2.95
2022-09-28T09:39:07.801Z,3.17
2022-09-28T09:42:20.631Z,3.53
2022-09-28T09:46:00.903Z,4.57
2022-09-28T09:49:18.335Z,3.15
2022-09-28T09:51:50.339Z,7.20
2022-09-28T09:59:38.102Z,2.27
2022-09-28T10:02:59.090Z,1.80
2022-09-28T10:05:47.583Z,3.08
2022-09-28T10:08:21.238Z,3.38
2022-09-28T10:11:24.353Z,2.65
2022-09-28T10:14:02.748Z,2.08
2022-09-28T10:16:41.616Z,2.53
2022-09-28T10:19:22.873Z,3.53
2022-09-28T10:22:20.000Z,2.65
2022-09-28T10:24:58.685Z,1.95
2022-09-28T10:27:47.589Z,2.00
2022-09-28T10:30:26.415Z,2.80
2022-09-28T10:33:00.007Z,3.03
2022-09-28T10:35:48.975Z,3.20
2022-09-28T10:38:22.896Z,1.67
2022-09-28T10:41:28.585Z,3.22
2022-09-28T10:44:09.728Z,2.83
2022-09-28T10:47:20.642Z,2.40
2022-09-28T10:54:33.292Z,3.50
2022-09-28T10:57:30.334Z,1.63
2022-09-28T11:00:14.460Z,2.65
2022-09-28T11:02:57.554Z,2.77
2022-09-28T11:05:38.358Z,2.88
2022-09-28T11:08:07.708Z,2.95
2022-09-28T11:10:49.496Z,3.33
2022-09-28T11:13:24.527Z,5.03
2022-09-28T11:16:03.743Z,4.10
2022-09-28T11:18:44.619Z,5.22
2022-09-28T11:21:25.259Z,2.22
2022-09-28T11:24:06.041Z,3.00
2022-09-28T11:26:48.223Z,5.03
2022-09-28T11:29:32.182Z,2.60
2022-09-28T11:32:24.324Z,4.82
2022-09-28T11:35:21.200Z,3.83
2022-09-28T11:38:31.333Z,2.55
2022-09-28T11:42:16.386Z,5.15
2022-09-28T11:44:49.251Z,2.87
2022-09-28T11:47:30.730Z,4.05
2022-09-28T11:50:22.903Z,1.95
2022-09-28T11:53:07.282Z,2.38
2022-09-28T11:55:47.756Z,4.00
2022-09-28T11:58:39.734Z,2.93
2022-09-28T12:01:44.859Z,2.97
2022-09-28T12:04:32.885Z,5.07
2022-09-28T12:07:20.376Z,4.53
2022-09-28T12:09:53.627Z,2.83
2022-09-28T12:12:32.818Z,2.83
2022-09-28T12:15:13.497Z,2.78
2022-09-28T12:17:48.610Z,4.75
2022-09-28T12:20:21.947Z,2.42
2022-09-28T12:23:01.162Z,4.70
2022-09-28T12:25:48.197Z,4.13
2022-09-28T12:28:39.324Z,4.45
2022-09-28T12:31:17.069Z,3.50
2022-09-28T12:33:47.627Z,2.95
2022-09-28T12:36:21.089Z,7.55
2022-09-28T12:39:21.649Z,3.37
2022-09-28T12:41:56.259Z,3.47
2022-09-28T12:44:26.941Z,3.40
2022-09-28T12:47:09.915Z,6.88
2022-09-28T12:53:05.822Z,4.07
2022-09-28T12:55:40.287Z,4.78
2022-09-28T12:58:27.561Z,3.40
2022-09-28T13:01:14.261Z,3.55
2022-09-28T13:03:57.039Z,2.97
2022-09-28T13:06:44.447Z,3.60
2022-09-28T13:09:27.765Z,2.63
2022-09-28T13:11:59.023Z,3.38
2022-09-28T13:14:45.940Z,3.17
2022-09-28T13:17:20.103Z,4.32
2022-09-28T13:19:53.310Z,3.23
2022-09-28T13:22:33.467Z,3.67
2022-09-28T13:25:04.129Z,2.10
2022-09-28T13:27:35.099Z,1.77
2022-09-28T13:30:08.435Z,3.72
2022-09-28T13:32:38.391Z,3.47
2022-09-28T13:35:07.060Z,3.97
2022-09-28T13:37:35.100Z,3.63
2022-09-28T13:40:06.413Z,3.80
2022-09-28T13:42:46.575Z,4.82
2022-09-28T13:45:17.700Z,3.33
2022-09-28T13:47:48.795Z,4.03
2022-09-28T13:50:41.358Z,4.22
2022-09-28T13:53:12.872Z,4.28
2022-09-28T13:55:54.551Z,6.22
2022-09-28T13:58:49.203Z,3.20
2022-09-28T14:01:19.957Z,4.45
2022-09-28T14:03:57.669Z,2.97
2022-09-28T14:06:30.723Z,4.63
2022-09-28T14:09:13.831Z,5.05
2022-09-28T14:11:43.090Z,2.83
2022-09-28T14:14:15.224Z,3.67
2022-09-28T14:16:46.323Z,4.35
2022-09-28T14:19:27.481Z,3.90
2022-09-28T14:22:01.322Z,5.00
2022-09-28T14:25:10.839Z,5.07
2022-09-28T14:28:17.059Z,9.00
2022-09-28T14:30:50.329Z,5.10
2022-09-28T14:33:21.401Z,4.82
2022-09-28T14:35:56.657Z,5.30
2022-09-28T14:38:45.315Z,5.50
2022-09-28T14:41:18.284Z,5.63
2022-09-28T14:43:48.397Z,4.32
2022-09-28T14:46:17.458Z,5.53
2022-09-28T14:48:53.185Z,6.60
2022-09-28T14:51:26.786Z,5.97
2022-09-28T14:53:55.249Z,5.72
2022-09-28T14:56:23.014Z,5.70
2022-09-28T14:58:54.763Z,5.47
2022-09-28T15:01:25.072Z,6.80
2022-09-28T15:03:54.986Z,5.40
2022-09-28T15:06:23.974Z,6.35
2022-09-28T15:08:52.102Z,6.95
2022-09-28T15:11:24.876Z,7.25
2022-09-28T15:14:06.873Z,6.57
2022-09-28T15:16:36.108Z,5.93
2022-09-28T15:19:11.423Z,5.22
2022-09-28T15:21:40.577Z,6.13
2022-09-28T15:24:31.161Z,6.97
2022-09-28T15:27:05.420Z,8.82
2022-09-28T15:29:33.693Z,5.53
2022-09-28T15:32:01.483Z,10.85
2022-09-28T15:34:52.627Z,6.90
2022-09-28T15:37:29.812Z,8.20
2022-09-28T15:39:57.639Z,8.80
2022-09-28T15:42:25.768Z,9.20
2022-09-28T15:45:26.962Z,11.85
2022-09-28T15:48:18.892Z,9.35
2022-09-28T15:51:04.113Z,6.85
2022-09-28T15:53:32.014Z,9.52
2022-09-28T15:56:01.922Z,7.33
2022-09-28T15:58:29.833Z,12.50
2022-09-28T16:01:22.436Z,11.48
2022-09-28T16:03:50.270Z,9.27
2022-09-28T16:06:17.938Z,9.77
2022-09-28T16:08:47.208Z,9.87
2022-09-28T16:11:20.783Z,8.27
2022-09-28T16:14:06.299Z,7.53
2022-09-28T16:16:43.311Z,7.78
2022-09-28T16:19:21.111Z,8.57
2022-09-28T16:21:48.889Z,6.93
2022-09-28T16:24:28.529Z,6.93
2022-09-28T16:27:09.022Z,5.30
2022-09-28T16:29:41.085Z,6.18
2022-09-28T16:32:27.152Z,8.32
2022-09-28T16:35:12.855Z,8.67
2022-09-28T16:37:43.183Z,8.60
2022-09-28T16:40:11.656Z,8.57
2022-09-28T16:42:40.115Z,9.68
2022-09-28T16:45:08.486Z,7.05
2022-09-28T16:47:36.760Z,7.27
2022-09-28T16:50:07.162Z,6.13
2022-09-28T16:52:56.805Z,7.30
2022-09-28T16:55:43.131Z,7.45
2022-09-28T16:58:12.004Z,7.60
2022-09-28T17:00:39.513Z,8.60
2022-09-28T17:03:15.525Z,11.43
2022-09-28T17:05:46.166Z,12.18
2022-09-28T17:08:18.122Z,9.77
2022-09-28T17:11:14.032Z,7.70
2022-09-28T17:13:43.586Z,7.90
2022-09-28T17:16:15.984Z,7.47
2022-09-28T17:18:44.472Z,14.18
2022-09-28T17:21:13.617Z,7.13
2022-09-28T17:23:41.339Z,8.57
2022-09-28T17:26:08.996Z,8.43
2022-09-28T17:28:37.037Z,10.52
2022-09-28T17:31:07.329Z,7.47
2022-09-28T17:33:35.586Z,7.85
2022-09-28T17:36:05.217Z,9.63
2022-09-28T17:38:34.508Z,11.70
2022-09-28T17:41:02.298Z,10.55
2022-09-28T17:43:30.081Z,11.35
2022-09-28T17:45:57.606Z,8.27
2022-09-28T17:48:26.111Z,9.48
2022-09-28T17:50:53.649Z,9.30
2022-09-28T17:53:21.575Z,9.63
2022-09-28T17:55:49.367Z,8.43
2022-09-28T17:58:21.677Z,9.77
2022-09-28T18:00:53.855Z,9.20
2022-09-28T18:03:23.080Z,7.20
2022-09-28T18:06:03.344Z,9.93
2022-09-28T18:08:31.293Z,7.40
2022-09-28T18:10:59.729Z,6.75
2022-09-28T18:13:29.470Z,7.25
2022-09-28T18:15:57.240Z,7.47
2022-09-28T18:18:25.097Z,9.85
2022-09-28T18:20:53.824Z,8.13
2022-09-28T18:23:23.931Z,7.03
2022-09-28T18:25:51.882Z,6.50
2022-09-28T18:28:23.631Z,6.40
2022-09-28T18:30:53.514Z,6.72
2022-09-28T18:33:21.636Z,6.82
2022-09-28T18:35:57.792Z,6.82
2022-09-28T18:38:26.637Z,7.07
2022-09-28T18:40:56.386Z,8.93
2022-09-28T18:43:24.158Z,6.95
2022-09-28T18:45:51.855Z,9.95
2022-09-28T18:48:23.684Z,8.32
2022-09-28T18:50:52.496Z,10.20
2022-09-28T18:53:20.166Z,8.80
2022-09-28T18:55:50.980Z,10.20
2022-09-28T18:58:19.645Z,8.77
2022-09-28T19:00:48.886Z,10.35
2022-09-28T19:03:17.976Z,9.27
2022-09-28T19:05:46.469Z,8.10
2022-09-28T19:08:14.393Z,8.15
2022-09-28T19:10:42.913Z,7.07
2022-09-28T19:13:10.581Z,10.23
2022-09-28T19:15:38.091Z,11.82
2022-09-28T19:18:08.171Z,13.23
2022-09-28T19:20:35.888Z,10.63
2022-09-28T19:23:06.525Z,8.40
2022-09-28T19:25:35.299Z,10.35
2022-09-28T19:28:03.008Z,10.88
2022-09-28T19:30:31.406Z,9.07
2022-09-28T19:33:00.378Z,10.68
2022-09-28T19:35:29.916Z,8.95
2022-09-28T19:37:57.943Z,9.27
2022-09-28T19:40:25.797Z,10.05
2022-09-28T19:42:53.546Z,8.63
2022-09-28T19:45:21.329Z,11.15
2022-09-28T19:47:49.539Z,11.40
2022-09-28T19:50:17.762Z,10.05
2022-09-28T19:52:45.869Z,9.48
2022-09-28T19:55:14.385Z,11.93
2022-09-28T19:57:42.906Z,9.55
2022-09-28T20:00:12.466Z,13.57
2022-09-28T20:02:40.268Z,12.00
2022-09-28T20:05:08.419Z,10.55
2022-09-28T20:07:37.160Z,10.90
2022-09-28T20:10:07.778Z,10.23
2022-09-28T20:12:35.362Z,12.07
2022-09-28T20:15:03.010Z,11.07
2022-09-28T20:17:30.696Z,10.63
2022-09-28T20:19:58.915Z,9.57
2022-09-28T20:22:26.727Z,13.27
2022-09-28T20:24:54.493Z,11.48
2022-09-28T20:27:25.605Z,10.48
2022-09-28T20:29:54.129Z,11.32
2022-09-28T20:32:21.683Z,9.83
2022-09-28T20:34:50.276Z,12.95
2022-09-28T20:37:17.882Z,11.30
2022-09-28T20:39:45.608Z,11.40
2022-09-28T20:42:16.414Z,13.07
2022-09-28T20:44:44.266Z,13.73
2022-09-28T20:47:12.166Z,12.15
2022-09-28T20:49:39.875Z,11.23
2022-09-28T20:52:08.172Z,12.00
2022-09-28T20:54:35.742Z,11.60
2022-09-28T20:57:17.616Z,12.33
2022-09-28T20:59:45.586Z,9.85
2022-09-28T21:02:14.163Z,9.55
2022-09-28T21:04:42.598Z,12.15
2022-09-28T21:07:10.214Z,11.13
2022-09-28T21:09:38.261Z,9.73
2022-09-28T21:12:05.951Z,10.73
2022-09-28T21:14:34.556Z,8.45
2022-09-28T21:17:02.156Z,9.40
2022-09-28T21:19:30.331Z,10.10
2022-09-28T21:21:58.062Z,8.77
2022-09-28T21:24:26.641Z,9.35
2022-09-28T21:26:55.875Z,8.38
2022-09-28T21:29:23.552Z,9.38
2022-09-28T21:31:51.101Z,10.40
2022-09-28T21:34:19.625Z,10.53
2022-09-28T21:36:51.558Z,9.48
2022-09-28T21:39:19.291Z,9.52
2022-09-28T21:41:46.733Z,9.68
2022-09-28T21:44:14.468Z,9.95
2022-09-28T21:46:42.438Z,7.07
2022-09-28T21:49:10.435Z,9.50
2022-09-28T21:51:38.238Z,7.95
2022-09-28T21:54:07.705Z,11.07
2022-09-28T21:56:35.432Z,9.40
2022-09-28T21:59:03.140Z,8.47
2022-09-28T22:01:32.962Z,9.05
2022-09-28T22:04:02.409Z,10.70
2022-09-28T22:06:30.142Z,10.88
2022-09-28T22:08:57.876Z,8.82
2022-09-28T22:11:27.033Z,7.47
2022-09-28T22:13:56.429Z,7.88
2022-09-28T22:16:25.548Z,8.52
2022-09-28T22:18:53.212Z,8.82
2022-09-28T22:21:25.234Z,7.63
2022-09-28T22:23:53.923Z,8.03
2022-09-28T22:26:24.309Z,9.15
2022-09-28T22:28:53.425Z,8.82
2022-09-28T22:31:29.398Z,9.27
2022-09-28T22:33:57.305Z,8.15
2022-09-28T22:36:26.361Z,9.07
2022-09-28T22:38:55.875Z,9.35
2022-09-28T22:41:25.541Z,7.63
2022-09-28T22:43:53.538Z,7.38
2022-09-28T22:46:23.173Z,7.70
2022-09-28T22:48:53.144Z,7.67
2022-09-28T22:51:23.166Z,6.88
2022-09-28T22:53:51.087Z,7.72
2022-09-28T22:56:19.350Z,9.63
2022-09-28T22:58:47.524Z,7.57
2022-09-28T23:01:21.269Z,7.67
2022-09-28T23:03:49.604Z,6.95
2022-09-28T23:06:18.061Z,5.35
2022-09-28T23:08:46.080Z,4.70
2022-09-28T23:11:13.715Z,4.05
2022-09-28T23:13:41.490Z,4.87
2022-09-28T23:16:11.201Z,5.45
2022-09-28T23:18:41.174Z,4.22
2022-09-28T23:21:12.213Z,3.17
2022-09-28T23:23:40.237Z,3.63
2022-09-28T23:26:19.343Z,3.87
2022-09-28T23:28:47.075Z,2.03
2022-09-28T23:31:16.652Z,4.20
2022-09-28T23:33:44.466Z,3.35
2022-09-28T23:36:12.168Z,3.03
2022-09-28T23:38:39.677Z,4.00
2022-09-28T23:41:07.375Z,4.93
2022-09-28T23:43:35.108Z,4.43
2022-09-28T23:46:03.741Z,4.53
2022-09-28T23:48:31.422Z,3.25
2022-09-28T23:50:59.246Z,4.33
2022-09-28T23:53:26.953Z,5.13
2022-09-28T23:55:55.341Z,5.22
2022-09-28T23:58:22.898Z,5.07
